createdAt,value
2022-09-15T00:02:16.615Z,13.88
2022-09-15T00:04:45.173Z,11.38
2022-09-15T00:07:13.650Z,13.68
2022-09-15T00:09:42.074Z,12.98
2022-09-15T00:12:10.525Z,12.50
2022-09-15T00:14:38.997Z,14.10
2022-09-15T00:17:07.533Z,13.32
2022-09-15T00:19:36.137Z,11.93
2022-09-15T00:22:04.518Z,14.82
2022-09-15T00:24:34.658Z,12.27
2022-09-15T00:27:03.237Z,13.18
2022-09-15T00:29:31.797Z,13.43
2022-09-15T00:32:05.222Z,12.48
2022-09-15T00:34:33.685Z,10.23
2022-09-15T00:37:02.262Z,12.57
2022-09-15T00:39:30.712Z,11.35
2022-09-15T00:41:59.303Z,10.35
2022-09-15T00:44:36.996Z,11.80
2022-09-15T00:47:19.145Z,10.93
2022-09-15T00:50:06.399Z,10.38
2022-09-15T00:52:49.133Z,10.13
2022-09-15T00:55:17.620Z,10.07
2022-09-15T00:57:48.812Z,11.10
2022-09-15T01:00:18.795Z,11.30
2022-09-15T01:02:47.788Z,9.98
2022-09-15T01:05:18.387Z,10.70
2022-09-15T01:07:50.492Z,10.80
2022-09-15T01:10:35.932Z,11.73
2022-09-15T01:13:05.810Z,11.35
2022-09-15T01:15:57.945Z,10.35
2022-09-15T01:18:44.914Z,11.10
2022-09-15T01:21:29.999Z,11.50
2022-09-15T01:24:07.631Z,12.65
2022-09-15T01:27:24.074Z,11.87
2022-09-15T01:30:13.679Z,12.10
2022-09-15T01:33:00.505Z,12.00
2022-09-15T01:35:28.876Z,12.40
2022-09-15T01:41:08.827Z,12.65
2022-09-15T01:43:39.897Z,12.43
2022-09-15T01:46:09.384Z,13.13
2022-09-15T01:48:38.522Z,13.18
2022-09-15T01:51:07.659Z,12.50
2022-09-15T01:53:36.409Z,12.93
2022-09-15T01:56:07.433Z,13.13
2022-09-15T01:58:37.544Z,14.27
2022-09-15T02:01:18.137Z,13.68
2022-09-15T02:03:46.514Z,13.75
2022-09-15T02:06:36.466Z,14.20
2022-09-15T02:09:21.761Z,15.93
2022-09-15T02:11:54.767Z,14.52
2022-09-15T02:14:39.758Z,14.32
2022-09-15T02:17:12.552Z,13.93
2022-09-15T02:19:54.806Z,15.10
2022-09-15T02:22:29.806Z,14.07
2022-09-15T02:25:31.378Z,14.93
2022-09-15T02:28:07.569Z,15.48
2022-09-15T02:30:47.034Z,13.32
2022-09-15T02:33:24.586Z,13.27
2022-09-15T02:35:53.418Z,12.63
2022-09-15T02:38:22.088Z,13.35
2022-09-15T02:40:50.609Z,13.68
2022-09-15T02:43:20.299Z,14.45
2022-09-15T02:45:49.978Z,14.32
2022-09-15T02:48:24.010Z,14.73
2022-09-15T02:50:52.693Z,15.57
2022-09-15T02:53:26.170Z,16.08
2022-09-15T02:55:54.597Z,16.48
2022-09-15T02:58:22.963Z,19.05
2022-09-15T03:00:56.764Z,19.55
2022-09-15T03:03:25.280Z,19.27
2022-09-15T03:05:53.670Z,18.90
2022-09-15T03:08:22.227Z,17.88
2022-09-15T03:10:50.833Z,17.63
2022-09-15T03:13:19.488Z,18.05
2022-09-15T03:15:48.087Z,18.17
2022-09-15T03:18:21.548Z,15.95
2022-09-15T03:20:50.089Z,14.98
2022-09-15T03:23:18.593Z,13.80
2022-09-15T03:25:47.143Z,15.13
2022-09-15T03:28:15.580Z,16.60
2022-09-15T03:30:44.673Z,17.40
2022-09-15T03:33:13.113Z,16.27
2022-09-15T03:35:41.727Z,15.85
2022-09-15T03:38:10.576Z,15.77
2022-09-15T03:40:43.390Z,14.93
2022-09-15T03:43:18.813Z,14.53
2022-09-15T03:45:47.859Z,14.48
2022-09-15T03:48:16.299Z,14.20
2022-09-15T03:50:44.721Z,13.95
2022-09-15T03:53:23.525Z,15.07
2022-09-15T03:55:52.322Z,14.73
2022-09-15T03:58:20.750Z,15.77
2022-09-15T04:00:49.350Z,14.95
2022-09-15T04:03:17.935Z,14.57
2022-09-15T04:05:46.279Z,14.50
2022-09-15T04:08:20.363Z,13.65
2022-09-15T04:10:53.404Z,12.52
2022-09-15T04:13:27.934Z,13.07
2022-09-15T04:16:01.527Z,14.25
2022-09-15T04:18:41.020Z,14.30
2022-09-15T04:21:12.073Z,14.18
2022-09-15T04:23:41.283Z,15.15
2022-09-15T04:26:19.550Z,14.98
2022-09-15T04:28:47.916Z,14.85
2022-09-15T04:31:27.448Z,15.73
2022-09-15T04:33:58.773Z,14.02
2022-09-15T04:36:28.664Z,13.95
2022-09-15T04:38:57.529Z,14.35
2022-09-15T04:41:31.303Z,13.82
2022-09-15T04:44:00.092Z,12.52
2022-09-15T04:46:28.536Z,12.25
2022-09-15T04:48:57.468Z,12.15
2022-09-15T04:51:26.036Z,11.43
2022-09-15T04:53:54.396Z,11.20
2022-09-15T04:56:33.249Z,11.13
2022-09-15T04:59:04.204Z,11.07
2022-09-15T05:01:34.400Z,10.60
2022-09-15T05:04:06.576Z,10.40
2022-09-15T05:06:35.679Z,10.40
2022-09-15T05:09:10.062Z,10.50
2022-09-15T05:11:39.105Z,8.73
2022-09-15T05:14:08.498Z,7.57
2022-09-15T05:16:37.013Z,7.47
2022-09-15T05:19:05.506Z,7.65
2022-09-15T05:21:34.183Z,10.93
2022-09-15T05:24:02.711Z,11.35
2022-09-15T05:26:31.434Z,11.70
2022-09-15T05:29:01.820Z,11.25
2022-09-15T05:31:31.552Z,11.48
2022-09-15T05:34:00.827Z,11.20
2022-09-15T05:36:29.358Z,11.48
2022-09-15T05:38:57.984Z,9.85
2022-09-15T05:41:27.591Z,9.63
2022-09-15T05:43:57.412Z,9.85
2022-09-15T05:46:27.011Z,9.75
2022-09-15T05:48:57.312Z,9.96
2022-09-15T05:51:25.862Z,9.80
2022-09-15T05:53:54.311Z,8.93
2022-09-15T05:56:22.758Z,8.60
2022-09-15T05:58:51.556Z,8.07
2022-09-15T06:01:22.934Z,9.05
2022-09-15T06:03:53.359Z,8.70
2022-09-15T06:06:31.963Z,9.23
2022-09-15T06:09:00.998Z,8.30
2022-09-15T06:11:31.036Z,8.68
2022-09-15T06:13:59.918Z,6.43
2022-09-15T06:16:28.641Z,6.85
2022-09-15T06:18:59.273Z,6.68
2022-09-15T06:21:28.807Z,6.28
2022-09-15T06:24:01.426Z,6.78
2022-09-15T06:26:30.211Z,6.30
2022-09-15T06:28:59.809Z,5.70
2022-09-15T06:31:29.284Z,5.90
2022-09-15T06:34:09.093Z,5.00
2022-09-15T06:36:38.504Z,5.25
2022-09-15T06:39:06.958Z,5.47
2022-09-15T06:42:00.867Z,5.68
2022-09-15T06:44:24.299Z,6.47
2022-09-15T06:46:52.692Z,6.07
2022-09-15T06:49:22.283Z,5.50
2022-09-15T06:51:50.704Z,5.60
2022-09-15T06:54:29.218Z,5.30
2022-09-15T06:57:08.453Z,6.60
2022-09-15T06:59:36.817Z,6.00
2022-09-15T07:02:05.515Z,6.40
2022-09-15T07:04:44.645Z,5.85
2022-09-15T07:07:18.548Z,6.15
2022-09-15T07:09:56.643Z,6.00
2022-09-15T07:12:34.776Z,6.20
2022-09-15T07:15:08.003Z,6.95
2022-09-15T07:17:37.836Z,7.50
2022-09-15T07:20:06.627Z,7.30
2022-09-15T07:22:35.101Z,7.05
2022-09-15T07:25:03.472Z,7.38
2022-09-15T07:27:42.521Z,7.50
2022-09-15T07:30:11.676Z,7.07
2022-09-15T07:32:40.560Z,6.75
2022-09-15T07:35:09.372Z,7.40
2022-09-15T07:37:37.762Z,6.90
2022-09-15T07:40:06.561Z,6.82
2022-09-15T07:42:35.625Z,6.40
2022-09-15T07:45:04.412Z,7.05
2022-09-15T07:47:32.798Z,6.50
2022-09-15T07:50:03.825Z,5.42
2022-09-15T07:52:42.308Z,5.80
2022-09-15T07:55:21.371Z,5.53
2022-09-15T07:57:59.612Z,5.30
2022-09-15T08:00:38.489Z,4.55
2022-09-15T08:03:09.117Z,4.28
2022-09-15T08:05:45.373Z,4.70
2022-09-15T08:08:15.675Z,5.25
2022-09-15T08:10:44.111Z,5.22
2022-09-15T08:13:14.086Z,4.97
2022-09-15T08:15:42.458Z,5.20
2022-09-15T08:18:22.159Z,5.28
2022-09-15T08:20:55.920Z,4.97
2022-09-15T08:23:29.054Z,5.47
2022-09-15T08:25:57.469Z,5.95
2022-09-15T08:28:29.510Z,5.85
2022-09-15T08:31:01.701Z,5.95
2022-09-15T08:33:30.633Z,5.38
2022-09-15T08:36:06.621Z,5.90
2022-09-15T08:38:35.262Z,5.88
2022-09-15T08:41:06.792Z,6.03
2022-09-15T08:43:47.221Z,5.35
2022-09-15T08:46:18.653Z,5.28
2022-09-15T08:48:50.670Z,5.50
2022-09-15T08:51:33.154Z,5.68
2022-09-15T08:54:05.885Z,5.60
2022-09-15T08:56:35.510Z,5.93
2022-09-15T08:59:15.185Z,5.60
2022-09-15T09:02:02.179Z,5.10
2022-09-15T09:04:49.510Z,5.00
2022-09-15T09:07:32.214Z,5.40
2022-09-15T09:10:07.371Z,5.32
2022-09-15T09:15:44.208Z,5.90
2022-09-15T09:18:15.583Z,5.38
2022-09-15T09:20:49.621Z,5.47
2022-09-15T09:23:20.917Z,5.55
2022-09-15T09:25:50.485Z,5.78
2022-09-15T09:28:31.812Z,5.10
2022-09-15T09:31:07.494Z,6.24
2022-09-15T09:33:40.264Z,5.28
2022-09-15T09:36:12.118Z,5.88
2022-09-15T09:38:41.276Z,5.13
2022-09-15T09:41:20.288Z,4.65
2022-09-15T09:43:49.667Z,5.50
2022-09-15T09:46:19.107Z,5.32
2022-09-15T09:49:05.195Z,4.47
2022-09-15T09:51:52.604Z,5.07
2022-09-15T09:54:29.635Z,4.30
2022-09-15T09:57:15.803Z,4.43
2022-09-15T09:59:45.535Z,4.40
2022-09-15T10:02:14.209Z,4.55
2022-09-15T10:04:44.525Z,4.88
2022-09-15T10:07:14.318Z,4.22
2022-09-15T10:09:54.085Z,4.88
2022-09-15T10:12:33.227Z,4.25
2022-09-15T10:15:03.047Z,4.55
2022-09-15T10:17:44.746Z,5.53
2022-09-15T10:23:25.945Z,4.57
2022-09-15T10:26:16.594Z,4.18
2022-09-15T10:29:05.978Z,4.63
2022-09-15T10:31:39.540Z,3.47
2022-09-15T10:37:47.541Z,4.63
2022-09-15T10:40:30.587Z,4.18
2022-09-15T10:43:02.148Z,4.45
2022-09-15T10:45:36.156Z,4.28
2022-09-15T10:48:07.644Z,4.25
2022-09-15T10:50:46.233Z,4.93
2022-09-15T10:53:20.616Z,4.65
2022-09-15T10:56:07.756Z,4.35
2022-09-15T10:58:45.694Z,5.28
2022-09-15T11:01:18.090Z,5.60
2022-09-15T11:03:49.272Z,5.80
2022-09-15T11:06:28.767Z,5.53
2022-09-15T11:09:01.782Z,6.13
2022-09-15T11:11:36.213Z,5.40
2022-09-15T11:14:17.756Z,5.70
2022-09-15T11:16:56.032Z,6.10
2022-09-15T11:19:27.480Z,5.32
2022-09-15T11:22:10.524Z,5.88
2022-09-15T11:24:42.209Z,6.47
2022-09-15T11:27:24.256Z,7.38
2022-09-15T11:30:01.491Z,6.60
2022-09-15T11:32:35.299Z,6.83
2022-09-15T11:35:06.938Z,6.40
2022-09-15T11:37:47.857Z,6.28
2022-09-15T11:40:26.484Z,7.38
2022-09-15T11:43:09.981Z,6.85
2022-09-15T11:45:42.173Z,7.18
2022-09-15T11:48:31.538Z,6.15
2022-09-15T11:51:01.671Z,6.90
2022-09-15T11:53:39.113Z,5.03
2022-09-15T11:56:22.191Z,6.35
2022-09-15T11:59:09.223Z,4.35
2022-09-15T12:01:44.504Z,8.48
2022-09-15T12:04:22.649Z,5.53
2022-09-15T12:06:57.509Z,5.50
2022-09-15T12:09:29.943Z,4.35
2022-09-15T12:12:00.973Z,6.32
2022-09-15T12:14:32.870Z,7.22
2022-09-15T12:17:10.221Z,5.00
2022-09-15T12:19:50.197Z,8.40
2022-09-15T12:22:31.067Z,11.30
2022-09-15T12:25:24.400Z,5.50
2022-09-15T12:28:15.097Z,7.53
2022-09-15T12:31:11.519Z,5.30
2022-09-15T12:33:56.926Z,6.30
2022-09-15T12:36:34.698Z,11.15
2022-09-15T12:39:04.303Z,8.63
2022-09-15T12:41:33.484Z,7.35
2022-09-15T12:44:12.890Z,6.00
2022-09-15T12:46:52.235Z,5.25
2022-09-15T12:49:23.187Z,6.70
2022-09-15T12:51:51.620Z,6.40
2022-09-15T12:54:23.936Z,5.68
2022-09-15T12:56:53.957Z,8.23
2022-09-15T12:59:26.498Z,8.35
2022-09-15T13:01:55.690Z,16.13
2022-09-15T13:04:42.480Z,9.68
2022-09-15T13:07:17.529Z,13.25
2022-09-15T13:12:54.927Z,8.93
2022-09-15T13:15:28.451Z,12.35
2022-09-15T13:18:04.576Z,9.30
2022-09-15T13:20:48.655Z,9.60
2022-09-15T13:23:26.184Z,10.47
2022-09-15T13:26:07.547Z,11.95
2022-09-15T13:28:37.753Z,15.18
2022-09-15T13:40:11.125Z,47.67
2022-09-15T13:42:53.651Z,55.47
2022-09-15T13:45:38.207Z,46.45
2022-09-15T13:48:18.264Z,30.85
2022-09-15T13:50:56.335Z,32.83
2022-09-15T13:53:36.732Z,21.15
2022-09-15T13:56:08.823Z,17.95
2022-09-15T13:59:01.444Z,16.30
2022-09-15T14:01:34.451Z,18.05
2022-09-15T14:04:06.158Z,18.73
2022-09-15T14:06:38.460Z,22.38
2022-09-15T14:09:18.906Z,43.53
2022-09-15T14:11:52.293Z,32.97
2022-09-15T14:14:36.294Z,49.35
2022-09-15T14:17:04.911Z,30.52
2022-09-15T14:19:34.935Z,33.45
2022-09-15T14:22:18.298Z,22.38
2022-09-15T14:24:47.626Z,22.48
2022-09-15T14:27:25.296Z,21.75
2022-09-15T14:29:55.759Z,25.83
2022-09-15T14:32:25.537Z,32.60
2022-09-15T14:35:06.846Z,31.33
2022-09-15T14:37:35.339Z,32.05
2022-09-15T14:40:17.717Z,22.98
2022-09-15T14:42:46.208Z,17.73
2022-09-15T14:48:28.628Z,13.80
2022-09-15T14:51:19.165Z,16.13
2022-09-15T14:53:50.132Z,14.43
2022-09-15T14:56:23.979Z,15.45
2022-09-15T14:58:58.676Z,15.60
2022-09-15T15:01:38.133Z,14.38
2022-09-15T15:04:20.431Z,16.17
2022-09-15T15:09:27.916Z,13.52
2022-09-15T15:12:06.865Z,14.68
2022-09-15T15:14:39.442Z,15.10
2022-09-15T15:17:24.674Z,13.43
2022-09-15T15:20:01.297Z,22.52
2022-09-15T15:22:32.035Z,22.98
2022-09-15T15:25:23.564Z,21.65
2022-09-15T15:28:01.722Z,18.60
2022-09-15T15:30:30.981Z,15.98
2022-09-15T15:33:04.368Z,14.55
2022-09-15T15:35:43.906Z,17.20
2022-09-15T15:38:18.579Z,15.20
2022-09-15T15:40:47.827Z,15.52
2022-09-15T15:43:26.691Z,18.63
2022-09-15T15:45:58.665Z,17.33
2022-09-15T15:48:37.950Z,19.77
2022-09-15T15:51:12.009Z,28.13
2022-09-15T15:53:50.630Z,30.85
2022-09-15T15:56:24.190Z,23.10
2022-09-15T15:58:58.451Z,24.08
2022-09-15T16:01:27.035Z,26.52
2022-09-15T16:03:56.400Z,29.20
2022-09-15T16:06:25.020Z,27.33
2022-09-15T16:08:53.502Z,32.28
2022-09-15T16:11:26.985Z,31.02
2022-09-15T16:13:55.421Z,29.35
2022-09-15T16:16:25.994Z,35.60
2022-09-15T16:18:54.847Z,37.60
2022-09-15T16:21:38.748Z,31.58
2022-09-15T16:24:10.923Z,28.42
2022-09-15T16:26:39.819Z,31.85
2022-09-15T16:29:13.493Z,27.13
2022-09-15T16:31:51.602Z,33.63
2022-09-15T16:34:20.039Z,28.75
2022-09-15T16:36:55.324Z,28.63
2022-09-15T16:39:29.966Z,26.52
2022-09-15T16:44:37.134Z,21.90
2022-09-15T16:47:06.985Z,24.52
2022-09-15T16:49:39.769Z,25.25
2022-09-15T16:52:09.581Z,24.73
2022-09-15T16:54:38.340Z,24.83
2022-09-15T16:57:11.749Z,24.95
2022-09-15T16:59:45.158Z,27.17
2022-09-15T17:02:14.342Z,27.38
2022-09-15T17:04:42.777Z,27.15
2022-09-15T17:07:21.269Z,28.42
2022-09-15T17:09:51.663Z,27.35
2022-09-15T17:12:20.346Z,27.42
2022-09-15T17:14:49.193Z,28.38
2022-09-15T17:17:24.143Z,32.10
2022-09-15T17:19:52.483Z,26.52
2022-09-15T17:22:20.882Z,30.52
2022-09-15T17:24:52.931Z,30.67
2022-09-15T17:27:21.328Z,33.08
2022-09-15T17:29:54.517Z,34.05
2022-09-15T17:32:22.885Z,35.08
2022-09-15T17:34:52.213Z,36.80
2022-09-15T17:37:20.546Z,36.65
2022-09-15T17:39:58.693Z,36.35
2022-09-15T17:42:27.382Z,38.83
2022-09-15T17:44:55.771Z,35.90
2022-09-15T17:47:24.286Z,36.92
2022-09-15T17:49:52.642Z,31.88
2022-09-15T17:52:21.294Z,39.17
2022-09-15T17:54:49.798Z,37.95
2022-09-15T17:57:23.406Z,39.63
2022-09-15T17:59:52.580Z,37.03
2022-09-15T18:02:21.642Z,36.97
2022-09-15T18:04:54.051Z,36.60
2022-09-15T18:07:22.952Z,39.50
2022-09-15T18:09:51.515Z,36.88
2022-09-15T18:12:29.740Z,35.80
2022-09-15T18:15:11.628Z,36.38
2022-09-15T18:17:40.049Z,40.53
2022-09-15T18:20:08.877Z,39.22
2022-09-15T18:22:48.168Z,38.67
2022-09-15T18:25:31.363Z,37.88
2022-09-15T18:28:10.453Z,39.00
2022-09-15T18:33:15.284Z,40.10
2022-09-15T18:35:56.576Z,40.95
2022-09-15T18:38:25.032Z,37.78
2022-09-15T18:40:58.114Z,43.58
2022-09-15T18:43:28.784Z,39.67
2022-09-15T18:46:00.573Z,45.35
2022-09-15T18:48:37.826Z,43.42
2022-09-15T18:51:24.246Z,43.08
2022-09-15T18:53:57.933Z,43.33
2022-09-15T18:56:26.304Z,37.25
2022-09-15T18:58:55.253Z,34.53
2022-09-15T19:01:23.859Z,32.08
2022-09-15T19:03:53.507Z,33.42
2022-09-15T19:06:22.033Z,32.25
2022-09-15T19:08:50.395Z,33.88
2022-09-15T19:11:18.827Z,35.35
2022-09-15T19:13:47.205Z,42.67
2022-09-15T19:16:15.764Z,57.72
2022-09-15T19:18:45.337Z,74.57
2022-09-15T19:21:13.794Z,80.72
2022-09-15T19:23:42.678Z,63.53
2022-09-15T19:26:14.209Z,55.17
2022-09-15T19:28:43.597Z,42.75
2022-09-15T19:31:13.112Z,44.08
2022-09-15T19:33:41.583Z,40.58
2022-09-15T19:36:27.374Z,36.78
2022-09-15T19:38:56.780Z,37.17
2022-09-15T19:41:25.146Z,36.92
2022-09-15T19:43:53.799Z,37.03
2022-09-15T19:46:26.228Z,34.03
2022-09-15T19:48:54.866Z,34.60
2022-09-15T19:51:23.808Z,33.85
2022-09-15T19:53:56.319Z,35.50
2022-09-15T19:56:26.741Z,36.78
2022-09-15T19:58:56.364Z,35.00
2022-09-15T20:01:25.762Z,35.10
2022-09-15T20:03:55.076Z,32.80
2022-09-15T20:06:32.702Z,35.47
2022-09-15T20:09:01.230Z,34.60
2022-09-15T20:11:30.254Z,35.35
2022-09-15T20:13:58.910Z,36.47
2022-09-15T20:16:31.709Z,36.70
2022-09-15T20:19:00.123Z,37.03
2022-09-15T20:21:49.253Z,36.33
2022-09-15T20:24:19.429Z,35.38
2022-09-15T20:26:47.932Z,39.13
2022-09-15T20:29:16.627Z,33.55
2022-09-15T20:31:45.218Z,33.63
2022-09-15T20:34:13.809Z,32.63
2022-09-15T20:36:42.120Z,32.50
2022-09-15T20:39:13.475Z,32.83
2022-09-15T20:41:45.329Z,34.45
2022-09-15T20:44:14.135Z,33.45
2022-09-15T20:46:42.826Z,33.55
2022-09-15T20:49:11.457Z,34.42
2022-09-15T20:51:39.933Z,33.80
2022-09-15T20:54:08.287Z,34.83
2022-09-15T20:56:36.749Z,36.83
2022-09-15T20:59:06.356Z,34.50
2022-09-15T21:01:37.113Z,35.17
2022-09-15T21:04:06.626Z,34.85
2022-09-15T21:06:35.356Z,34.25
2022-09-15T21:09:04.542Z,34.97
2022-09-15T21:11:33.025Z,36.22
2022-09-15T21:14:01.626Z,36.97
2022-09-15T21:16:40.673Z,38.42
2022-09-15T21:19:13.050Z,39.87
2022-09-15T21:21:51.543Z,44.97
2022-09-15T21:24:20.075Z,45.92
2022-09-15T21:27:06.950Z,36.05
2022-09-15T21:29:45.462Z,31.65
2022-09-15T21:32:13.825Z,32.50
2022-09-15T21:34:42.275Z,32.00
2022-09-15T21:37:11.276Z,36.47
2022-09-15T21:39:39.577Z,35.33
2022-09-15T21:42:13.496Z,38.97
2022-09-15T21:44:52.520Z,37.13
2022-09-15T21:47:32.954Z,42.25
2022-09-15T21:50:11.677Z,38.88
2022-09-15T21:52:40.173Z,40.35
2022-09-15T21:55:13.522Z,44.08
2022-09-15T21:57:41.941Z,44.53
2022-09-15T22:00:10.605Z,48.35
2022-09-15T22:02:38.970Z,47.08
2022-09-15T22:05:17.310Z,52.58
2022-09-15T22:07:45.725Z,49.75
2022-09-15T22:10:14.173Z,55.17
2022-09-15T22:12:47.527Z,55.78
2022-09-15T22:15:19.038Z,50.95
2022-09-15T22:17:52.783Z,58.33
2022-09-15T22:20:31.462Z,52.88
2022-09-15T22:23:05.094Z,54.20
2022-09-15T22:25:33.870Z,52.63
2022-09-15T22:28:12.042Z,53.92
2022-09-15T22:30:50.001Z,53.20
2022-09-15T22:33:18.450Z,53.10
2022-09-15T22:35:57.848Z,52.28
2022-09-15T22:38:36.499Z,51.65
2022-09-15T22:41:05.960Z,51.60
2022-09-15T22:43:45.421Z,51.60
2022-09-15T22:46:22.533Z,52.35
2022-09-15T22:49:00.950Z,49.67
2022-09-15T22:51:30.122Z,50.75
2022-09-15T22:53:58.831Z,46.35
2022-09-15T22:56:37.206Z,47.38
2022-09-15T22:59:06.284Z,43.53
2022-09-15T23:01:34.756Z,44.78
2022-09-15T23:04:03.393Z,44.95
2022-09-15T23:06:33.116Z,43.90
2022-09-15T23:09:10.022Z,39.48
2022-09-15T23:11:42.353Z,54.95
2022-09-15T23:14:13.297Z,42.88
2022-09-15T23:16:51.968Z,46.78
2022-09-15T23:19:20.567Z,58.27
2022-09-15T23:21:48.945Z,54.75
2022-09-15T23:24:17.491Z,49.72
2022-09-15T23:26:45.846Z,47.70
2022-09-15T23:29:14.252Z,44.70
2022-09-15T23:31:42.769Z,44.58
2022-09-15T23:34:11.263Z,40.83
2022-09-15T23:36:39.660Z,38.88
2022-09-15T23:39:08.032Z,39.92
2022-09-15T23:41:37.221Z,40.33
2022-09-15T23:44:05.790Z,50.78
2022-09-15T23:46:34.877Z,120.22
2022-09-15T23:49:17.980Z,73.63
2022-09-15T23:51:57.061Z,75.28
2022-09-15T23:54:25.439Z,51.58
2022-09-15T23:56:53.851Z,49.30
2022-09-15T23:59:22.300Z,45.47
